createdAt,value
2023-05-15T00:01:22.547Z,97370.84
2023-05-15T00:03:52.287Z,97381.66
2023-05-15T00:06:20.260Z,97393.03
2023-05-15T00:08:47.634Z,97401.31
2023-05-15T00:11:15.372Z,97390.09
2023-05-15T00:13:42.687Z,97378.28
2023-05-15T00:16:10.345Z,97377.16
2023-05-15T00:18:37.781Z,97375.88
2023-05-15T00:21:05.496Z,97353.50
2023-05-15T00:23:32.737Z,97352.81
2023-05-15T00:26:00.388Z,97336.38
2023-05-15T00:28:27.742Z,97340.81
2023-05-15T00:30:55.511Z,97331.59
2023-05-15T00:33:22.933Z,97336.22
2023-05-15T00:35:51.310Z,97338.75
2023-05-15T00:38:18.604Z,97333.97
2023-05-15T00:40:46.853Z,97326.75
2023-05-15T00:43:16.201Z,97320.44
2023-05-15T00:45:45.547Z,97319.66
2023-05-15T00:48:14.017Z,97311.88
2023-05-15T00:50:42.606Z,97317.66
2023-05-15T00:53:11.239Z,97300.25
2023-05-15T00:55:40.739Z,97293.59
2023-05-15T00:58:11.009Z,97289.75
2023-05-15T01:00:39.363Z,97283.06
2023-05-15T01:03:07.063Z,97282.50
2023-05-15T01:05:34.925Z,97287.84
2023-05-15T01:08:39.975Z,97288.09
2023-05-15T01:11:09.580Z,97287.03
2023-05-15T01:13:36.948Z,97287.31
2023-05-15T01:16:06.451Z,97296.66
2023-05-15T01:18:33.956Z,97296.94
2023-05-15T01:21:34.726Z,97297.47
2023-05-15T01:24:23.428Z,97302.50
2023-05-15T01:27:15.453Z,97299.63
2023-05-15T01:29:59.891Z,97289.53
2023-05-15T01:32:54.319Z,97273.78
2023-05-15T01:35:41.512Z,97262.97
2023-05-15T01:38:39.331Z,97263.44
2023-05-15T01:41:35.171Z,97260.53
2023-05-15T01:44:15.113Z,97252.25
2023-05-15T01:46:51.293Z,97261.41
2023-05-15T01:49:24.877Z,97265.31
2023-05-15T01:52:14.824Z,97262.69
2023-05-15T01:54:43.803Z,97260.78
2023-05-15T01:57:13.755Z,97255.63
2023-05-15T01:59:43.209Z,97263.75
2023-05-15T02:02:12.152Z,97258.06
2023-05-15T02:04:42.758Z,97260.03
2023-05-15T02:07:11.151Z,97258.41
2023-05-15T02:09:41.237Z,97257.13
2023-05-15T02:12:10.755Z,97258.72
2023-05-15T02:14:41.387Z,97254.28
2023-05-15T02:17:09.244Z,97245.78
2023-05-15T02:19:36.919Z,97248.72
2023-05-15T02:22:04.408Z,97247.06
2023-05-15T02:24:32.060Z,97254.22
2023-05-15T02:27:12.199Z,97248.22
2023-05-15T02:30:29.595Z,97238.38
2023-05-15T02:33:36.072Z,97238.28
2023-05-15T02:36:09.654Z,97236.19
2023-05-15T02:38:49.107Z,97244.47
2023-05-15T02:41:19.486Z,97242.56
2023-05-15T02:43:50.936Z,97239.88
2023-05-15T02:46:21.908Z,97236.53
2023-05-15T02:48:50.766Z,97232.94
2023-05-15T02:51:18.954Z,97238.66
2023-05-15T02:53:46.431Z,97228.16
2023-05-15T02:56:14.125Z,97241.84
2023-05-15T02:58:42.507Z,97229.34
2023-05-15T03:01:10.329Z,97228.16
2023-05-15T03:03:37.680Z,97227.16
2023-05-15T03:06:06.910Z,97227.84
2023-05-15T03:08:34.254Z,97216.50
2023-05-15T03:11:01.870Z,97223.47
2023-05-15T03:13:29.227Z,97219.34
2023-05-15T03:15:56.994Z,97221.50
2023-05-15T03:18:24.662Z,97220.97
2023-05-15T03:20:53.716Z,97213.53
2023-05-15T03:23:21.084Z,97222.63
2023-05-15T03:25:48.750Z,97220.16
2023-05-15T03:28:16.145Z,97215.34
2023-05-15T03:30:46.913Z,97211.63
2023-05-15T03:33:14.260Z,97206.06
2023-05-15T03:35:42.102Z,97201.34
2023-05-15T03:38:09.568Z,97204.69
2023-05-15T03:40:39.672Z,97198.25
2023-05-15T03:43:07.232Z,97201.09
2023-05-15T03:45:37.725Z,97194.81
2023-05-15T03:48:05.808Z,97183.09
2023-05-15T03:50:33.762Z,97186.78
2023-05-15T03:53:01.156Z,97185.63
2023-05-15T03:55:28.854Z,97176.56
2023-05-15T03:57:58.069Z,97184.72
2023-05-15T04:00:26.268Z,97175.75
2023-05-15T04:02:54.268Z,97174.47
2023-05-15T04:05:22.722Z,97171.25
2023-05-15T04:07:50.513Z,97166.22
2023-05-15T04:10:18.131Z,97176.84
2023-05-15T04:12:46.401Z,97174.53
2023-05-15T04:15:23.393Z,97176.19
2023-05-15T04:17:53.887Z,97184.00
2023-05-15T04:20:24.493Z,97179.06
2023-05-15T04:22:53.016Z,97185.50
2023-05-15T04:25:21.320Z,97192.34
2023-05-15T04:27:49.439Z,97182.28
2023-05-15T04:30:17.581Z,97184.31
2023-05-15T04:32:44.976Z,97186.00
2023-05-15T04:35:13.775Z,97172.50
2023-05-15T04:37:43.273Z,97174.03
2023-05-15T04:40:12.323Z,97172.72
2023-05-15T04:42:39.860Z,97163.41
2023-05-15T04:45:09.377Z,97163.16
2023-05-15T04:47:37.298Z,97154.31
2023-05-15T04:50:05.615Z,97160.91
2023-05-15T04:52:33.419Z,97156.47
2023-05-15T04:55:01.137Z,97154.53
2023-05-15T04:57:28.782Z,97146.56
2023-05-15T04:59:56.520Z,97154.47
2023-05-15T05:02:24.613Z,97150.72
2023-05-15T05:04:52.792Z,97150.19
2023-05-15T05:07:20.132Z,97152.00
2023-05-15T05:09:47.708Z,97143.66
2023-05-15T05:12:15.071Z,97141.84
2023-05-15T05:14:44.710Z,97136.09
2023-05-15T05:17:12.245Z,97132.84
2023-05-15T05:19:39.860Z,97129.06
2023-05-15T05:22:07.848Z,97136.97
2023-05-15T05:24:37.585Z,97132.81
2023-05-15T05:27:05.836Z,97126.63
2023-05-15T05:29:34.044Z,97138.84
2023-05-15T05:32:01.474Z,97136.41
2023-05-15T05:34:29.436Z,97130.97
2023-05-15T05:36:56.862Z,97136.59
2023-05-15T05:39:26.668Z,97133.59
2023-05-15T05:41:53.960Z,97130.66
2023-05-15T05:44:21.640Z,97128.00
2023-05-15T05:46:49.752Z,97130.34
2023-05-15T05:49:17.448Z,97128.22
2023-05-15T05:51:47.159Z,97134.16
2023-05-15T05:54:15.208Z,97134.97
2023-05-15T05:56:43.124Z,97133.97
2023-05-15T05:59:10.990Z,97119.16
2023-05-15T06:01:38.505Z,97118.84
2023-05-15T06:04:06.433Z,97111.28
2023-05-15T06:06:34.686Z,97121.50
2023-05-15T06:09:02.511Z,97130.69
2023-05-15T06:11:29.816Z,97127.41
2023-05-15T06:13:57.392Z,97129.97
2023-05-15T06:16:24.766Z,97124.09
2023-05-15T06:18:52.368Z,97123.59
2023-05-15T06:21:19.754Z,97111.44
2023-05-15T06:23:53.340Z,97114.72
2023-05-15T06:26:22.054Z,97116.25
2023-05-15T06:28:50.577Z,97112.94
2023-05-15T06:31:18.036Z,97119.22
2023-05-15T06:33:45.642Z,97115.59
2023-05-15T06:36:12.975Z,97112.91
2023-05-15T06:38:40.546Z,97112.91
2023-05-15T06:41:07.920Z,97109.91
2023-05-15T06:43:38.546Z,97108.75
2023-05-15T06:46:06.176Z,97110.91
2023-05-15T06:48:34.227Z,97114.56
2023-05-15T06:51:01.777Z,97114.56
2023-05-15T06:53:30.335Z,97109.63
2023-05-15T06:55:57.876Z,97111.28
2023-05-15T06:58:27.878Z,97115.75
2023-05-15T07:00:57.673Z,97113.09
2023-05-15T07:03:26.725Z,97115.38
2023-05-15T07:05:54.307Z,97114.72
2023-05-15T07:08:21.964Z,97113.03
2023-05-15T07:10:49.590Z,97117.31
2023-05-15T07:13:18.437Z,97115.84
2023-05-15T07:15:46.081Z,97111.84
2023-05-15T07:18:13.759Z,97121.13
2023-05-15T07:20:41.170Z,97114.53
2023-05-15T07:23:08.802Z,97106.75
2023-05-15T07:25:36.528Z,97106.97
2023-05-15T07:28:04.469Z,97099.34
2023-05-15T07:30:31.817Z,97100.66
2023-05-15T07:32:59.613Z,97101.28
2023-05-15T07:35:27.318Z,97106.09
2023-05-15T07:37:55.226Z,97103.78
2023-05-15T07:40:24.324Z,97105.59
2023-05-15T07:42:51.984Z,97106.31
2023-05-15T07:45:19.466Z,97108.47
2023-05-15T07:47:49.164Z,97099.25
2023-05-15T07:50:19.794Z,97100.41
2023-05-15T07:52:47.489Z,97110.09
2023-05-15T07:55:14.886Z,97109.06
2023-05-15T07:57:42.630Z,97105.63
2023-05-15T08:00:13.723Z,97106.69
2023-05-15T08:02:41.743Z,97110.97
2023-05-15T08:05:09.774Z,97119.25
2023-05-15T08:07:37.536Z,97113.97
2023-05-15T08:10:07.477Z,97112.78
2023-05-15T08:12:35.256Z,97116.78
2023-05-15T08:15:02.748Z,97121.19
2023-05-15T08:17:30.789Z,97123.53
2023-05-15T08:19:58.174Z,97120.53
2023-05-15T08:22:25.957Z,97117.06
2023-05-15T08:24:53.340Z,97122.78
2023-05-15T08:27:21.035Z,97129.53
2023-05-15T08:29:48.448Z,97129.03
2023-05-15T08:32:18.277Z,97120.91
2023-05-15T08:34:45.832Z,97126.06
2023-05-15T08:37:13.422Z,97125.44
2023-05-15T08:39:40.714Z,97121.00
2023-05-15T08:42:11.386Z,97119.44
2023-05-15T08:44:39.567Z,97122.66
2023-05-15T08:47:07.969Z,97122.72
2023-05-15T08:50:06.943Z,97125.69
2023-05-15T08:52:35.059Z,97129.09
2023-05-15T08:55:03.962Z,97128.72
2023-05-15T08:57:33.995Z,97123.31
2023-05-15T09:00:06.520Z,97122.84
2023-05-15T09:02:37.604Z,97135.06
2023-05-15T09:05:07.421Z,97135.28
2023-05-15T09:07:36.454Z,97134.84
2023-05-15T09:10:04.796Z,97139.50
2023-05-15T09:12:34.931Z,97144.81
2023-05-15T09:15:22.577Z,97141.50
2023-05-15T09:17:54.550Z,97142.09
2023-05-15T09:20:34.000Z,97137.66
2023-05-15T09:23:04.725Z,97139.34
2023-05-15T09:25:44.948Z,97149.44
2023-05-15T09:28:31.912Z,97142.47
2023-05-15T09:31:03.001Z,97149.34
2023-05-15T09:33:39.944Z,97148.31
2023-05-15T09:36:09.495Z,97146.81
2023-05-15T09:38:48.465Z,97140.22
2023-05-15T09:41:25.049Z,97146.06
2023-05-15T09:43:56.277Z,97144.53
2023-05-15T09:46:24.260Z,97155.16
2023-05-15T09:48:55.889Z,97152.78
2023-05-15T09:51:23.461Z,97159.56
2023-05-15T09:53:53.746Z,97168.28
2023-05-15T09:56:22.130Z,97163.69
2023-05-15T09:58:59.128Z,97161.22
2023-05-15T10:01:27.648Z,97152.25
2023-05-15T10:04:05.697Z,97151.13
2023-05-15T10:06:43.338Z,97155.22
2023-05-15T10:09:12.963Z,97149.31
2023-05-15T10:11:43.740Z,97161.03
2023-05-15T10:14:14.281Z,97167.41
2023-05-15T10:16:42.130Z,97178.44
2023-05-15T10:19:14.100Z,97173.34
2023-05-15T10:21:42.411Z,97174.00
2023-05-15T10:24:11.759Z,97180.66
2023-05-15T10:26:41.771Z,97185.03
2023-05-15T10:29:13.146Z,97180.41
2023-05-15T10:31:42.139Z,97182.28
2023-05-15T10:34:12.122Z,97187.44
2023-05-15T10:36:43.106Z,97187.22
2023-05-15T10:39:11.904Z,97181.50
2023-05-15T10:41:40.742Z,97182.63
2023-05-15T10:44:08.999Z,97177.84
2023-05-15T10:46:37.724Z,97172.88
2023-05-15T10:49:05.663Z,97172.72
2023-05-15T10:51:33.636Z,97173.56
2023-05-15T10:54:05.287Z,97180.00
2023-05-15T10:56:39.206Z,97175.13
2023-05-15T10:59:10.656Z,97164.97
2023-05-15T11:01:40.148Z,97167.06
2023-05-15T11:04:16.191Z,97164.16
2023-05-15T11:06:49.057Z,97173.03
2023-05-15T11:09:23.299Z,97167.72
2023-05-15T11:12:09.543Z,97167.34
2023-05-15T11:14:43.515Z,97162.66
2023-05-15T11:17:17.680Z,97164.19
2023-05-15T11:19:51.374Z,97160.22
2023-05-15T11:22:23.085Z,97164.41
2023-05-15T11:25:09.343Z,97154.56
2023-05-15T11:27:46.620Z,97152.06
2023-05-15T11:30:22.968Z,97149.16
2023-05-15T11:32:52.022Z,97149.69
2023-05-15T11:35:43.596Z,97149.31
2023-05-15T11:38:11.037Z,97142.75
2023-05-15T11:40:47.681Z,97143.66
2023-05-15T11:43:28.356Z,97141.53
2023-05-15T11:46:04.433Z,97134.06
2023-05-15T11:48:41.781Z,97141.16
2023-05-15T11:51:25.377Z,97135.78
2023-05-15T11:53:56.087Z,97134.50
2023-05-15T11:56:30.936Z,97132.25
2023-05-15T11:59:01.313Z,97129.88
2023-05-15T12:01:44.036Z,97141.38
2023-05-15T12:04:19.330Z,97142.06
2023-05-15T12:06:49.602Z,97130.34
2023-05-15T12:09:19.581Z,97128.63
2023-05-15T12:11:53.780Z,97134.38
2023-05-15T12:14:31.487Z,97127.22
2023-05-15T12:17:04.460Z,97140.81
2023-05-15T12:19:34.715Z,97123.41
2023-05-15T12:22:06.467Z,97131.47
2023-05-15T12:24:39.784Z,97128.44
2023-05-15T12:27:09.817Z,97122.84
2023-05-15T12:29:41.809Z,97112.91
2023-05-15T12:32:10.349Z,97114.44
2023-05-15T12:34:38.132Z,97124.44
2023-05-15T12:37:05.988Z,97123.72
2023-05-15T12:39:33.436Z,97118.03
2023-05-15T12:42:01.232Z,97112.88
2023-05-15T12:44:29.445Z,97117.19
2023-05-15T12:46:57.405Z,97124.28
2023-05-15T12:49:24.918Z,97128.03
2023-05-15T12:51:52.440Z,97129.00
2023-05-15T12:54:20.950Z,97126.13
2023-05-15T12:56:49.346Z,97130.03
2023-05-15T12:59:16.871Z,97129.09
2023-05-15T13:01:45.555Z,97116.03
2023-05-15T13:04:12.908Z,97125.88
2023-05-15T13:06:46.849Z,97124.06
2023-05-15T13:09:22.053Z,97122.09
2023-05-15T13:11:50.041Z,97112.25
2023-05-15T13:14:22.735Z,97118.56
2023-05-15T13:16:50.349Z,97123.94
2023-05-15T13:19:17.895Z,97120.88
2023-05-15T13:21:46.066Z,97138.31
2023-05-15T13:24:13.433Z,97121.56
2023-05-15T13:26:41.301Z,97135.56
2023-05-15T13:29:08.744Z,97134.81
2023-05-15T13:31:36.395Z,97132.06
2023-05-15T13:34:03.789Z,97142.50
2023-05-15T13:36:31.507Z,97142.47
2023-05-15T13:38:58.942Z,97127.09
2023-05-15T13:41:26.663Z,97142.47
2023-05-15T13:43:54.025Z,97142.69
2023-05-15T13:46:21.644Z,97144.06
2023-05-15T13:48:49.082Z,97145.16
2023-05-15T13:51:16.931Z,97139.09
2023-05-15T13:53:44.297Z,97144.22
2023-05-15T13:56:12.796Z,97133.03
2023-05-15T13:58:41.288Z,97131.03
2023-05-15T14:01:08.912Z,97161.38
2023-05-15T14:03:36.529Z,97148.03
2023-05-15T14:06:04.686Z,97138.72
2023-05-15T14:08:31.962Z,97140.19
2023-05-15T14:10:59.554Z,97145.66
2023-05-15T14:13:26.871Z,97135.44
2023-05-15T14:15:55.082Z,97152.34
2023-05-15T14:18:22.393Z,97144.25
2023-05-15T14:20:50.068Z,97156.66
2023-05-15T14:23:17.382Z,97150.22
2023-05-15T14:25:45.034Z,97161.00
2023-05-15T14:28:13.101Z,97155.28
2023-05-15T14:30:40.848Z,97151.06
2023-05-15T14:33:08.245Z,97142.59
2023-05-15T14:35:36.721Z,97146.69
2023-05-15T14:38:04.714Z,97168.25
2023-05-15T14:40:32.361Z,97150.25
2023-05-15T14:42:59.716Z,97145.31
2023-05-15T14:45:27.634Z,97141.03
2023-05-15T14:47:55.090Z,97147.19
2023-05-15T14:50:22.878Z,97161.94
2023-05-15T14:52:50.325Z,97147.78
2023-05-15T14:55:23.360Z,97154.03
2023-05-15T14:57:50.887Z,97137.97
2023-05-15T15:00:18.737Z,97150.53
2023-05-15T15:02:46.525Z,97141.78
2023-05-15T15:05:14.426Z,97142.03
2023-05-15T15:08:11.054Z,97144.25
2023-05-15T15:10:40.350Z,97156.84
2023-05-15T15:13:10.164Z,97137.94
2023-05-15T15:15:37.845Z,97140.84
2023-05-15T15:18:06.043Z,97157.75
2023-05-15T15:20:33.944Z,97153.97
2023-05-15T15:23:05.116Z,97156.88
2023-05-15T15:25:33.764Z,97143.41
2023-05-15T15:28:02.567Z,97161.59
2023-05-15T15:30:31.131Z,97171.28
2023-05-15T15:32:59.250Z,97168.94
2023-05-15T15:35:26.909Z,97159.88
2023-05-15T15:37:55.376Z,97165.47
2023-05-15T15:40:23.958Z,97175.00
2023-05-15T15:42:51.961Z,97164.16
2023-05-15T15:45:19.348Z,97167.09
2023-05-15T15:47:47.078Z,97166.97
2023-05-15T15:50:14.490Z,97159.28
2023-05-15T15:52:42.253Z,97168.25
2023-05-15T15:55:10.274Z,97164.72
2023-05-15T15:57:38.101Z,97193.22
2023-05-15T16:00:08.331Z,97172.78
2023-05-15T16:02:36.767Z,97190.69
2023-05-15T16:05:04.351Z,97179.69
2023-05-15T16:07:32.051Z,97183.53
2023-05-15T16:10:11.953Z,97174.72
2023-05-15T16:12:42.606Z,97187.66
2023-05-15T16:15:21.653Z,97173.44
2023-05-15T16:17:54.305Z,97187.50
2023-05-15T16:20:23.438Z,97173.75
2023-05-15T16:22:56.136Z,97175.00
2023-05-15T16:25:23.609Z,97184.09
2023-05-15T16:27:51.279Z,97191.88
2023-05-15T16:30:18.636Z,97178.63
2023-05-15T16:32:46.664Z,97188.84
2023-05-15T16:35:14.134Z,97196.66
2023-05-15T16:37:41.822Z,97207.22
2023-05-15T16:40:09.945Z,97194.59
2023-05-15T16:42:38.229Z,97202.91
2023-05-15T16:45:07.061Z,97209.88
2023-05-15T16:47:37.233Z,97213.97
2023-05-15T16:50:08.363Z,97225.25
2023-05-15T16:52:36.920Z,97207.69
2023-05-15T16:55:04.780Z,97207.28
2023-05-15T16:57:32.476Z,97236.81
2023-05-15T16:59:59.813Z,97207.09
2023-05-15T17:02:27.517Z,97209.63
2023-05-15T17:04:55.255Z,97205.81
2023-05-15T17:07:22.816Z,97214.53
2023-05-15T17:09:50.108Z,97230.56
2023-05-15T17:12:17.770Z,97216.09
2023-05-15T17:14:44.995Z,97239.31
2023-05-15T17:17:12.605Z,97230.25
2023-05-15T17:19:39.819Z,97223.19
2023-05-15T17:22:07.376Z,97231.53
2023-05-15T17:24:49.365Z,97241.94
2023-05-15T17:27:19.839Z,97239.63
2023-05-15T17:29:48.326Z,97269.25
2023-05-15T17:32:16.945Z,97231.53
2023-05-15T17:34:45.163Z,97245.00
2023-05-15T17:37:14.115Z,97240.56
2023-05-15T17:39:41.661Z,97254.88
2023-05-15T17:42:09.514Z,97246.53
2023-05-15T17:44:36.800Z,97256.19
2023-05-15T17:47:04.754Z,97247.31
2023-05-15T17:49:34.273Z,97270.22
2023-05-15T17:52:02.058Z,97263.28
2023-05-15T17:54:29.486Z,97266.91
2023-05-15T17:56:57.132Z,97259.72
2023-05-15T17:59:24.677Z,97266.41
2023-05-15T18:01:53.051Z,97280.38
2023-05-15T18:04:20.689Z,97273.13
2023-05-15T18:06:48.690Z,97272.09
2023-05-15T18:09:16.091Z,97284.09
2023-05-15T18:11:43.682Z,97282.97
2023-05-15T18:14:11.119Z,97276.06
2023-05-15T18:16:39.100Z,97290.00
2023-05-15T18:19:07.255Z,97291.28
2023-05-15T18:21:37.673Z,97301.16
2023-05-15T18:24:05.747Z,97309.91
2023-05-15T18:26:33.369Z,97314.69
2023-05-15T18:29:00.604Z,97312.69
2023-05-15T18:31:28.291Z,97317.56
2023-05-15T18:33:55.730Z,97318.13
2023-05-15T18:36:23.884Z,97329.69
2023-05-15T18:38:51.431Z,97335.28
2023-05-15T18:41:19.111Z,97334.69
2023-05-15T18:43:46.566Z,97338.78
2023-05-15T18:46:14.232Z,97338.25
2023-05-15T18:48:41.636Z,97347.31
2023-05-15T18:51:10.977Z,97347.19
2023-05-15T18:53:38.408Z,97356.59
2023-05-15T18:56:06.241Z,97357.38
2023-05-15T18:58:33.593Z,97368.31
2023-05-15T19:01:01.295Z,97358.72
2023-05-15T19:03:28.779Z,97364.66
2023-05-15T19:05:57.491Z,97368.78
2023-05-15T19:08:25.020Z,97374.56
2023-05-15T19:10:53.048Z,97371.78
2023-05-15T19:13:20.445Z,97382.28
2023-05-15T19:15:52.720Z,97375.91
2023-05-15T19:18:20.474Z,97376.53
2023-05-15T19:20:52.306Z,97382.50
2023-05-15T19:23:20.982Z,97387.06
2023-05-15T19:25:48.800Z,97384.69
2023-05-15T19:28:16.466Z,97396.16
2023-05-15T19:30:44.641Z,97393.16
2023-05-15T19:33:13.079Z,97397.94
2023-05-15T19:35:40.952Z,97394.50
2023-05-15T19:38:08.424Z,97394.63
2023-05-15T19:40:36.721Z,97387.66
2023-05-15T19:43:04.522Z,97391.41
2023-05-15T19:45:33.779Z,97385.50
2023-05-15T19:48:01.432Z,97391.25
2023-05-15T19:50:29.585Z,97378.22
2023-05-15T19:52:57.860Z,97380.25
2023-05-15T19:55:25.817Z,97382.88
2023-05-15T19:57:56.447Z,97374.00
2023-05-15T20:00:24.907Z,97374.47
2023-05-15T20:02:53.356Z,97378.69
2023-05-15T20:05:21.324Z,97375.91
2023-05-15T20:07:48.854Z,97382.41
2023-05-15T20:10:18.607Z,97389.63
2023-05-15T20:12:46.869Z,97389.84
2023-05-15T20:15:15.883Z,97392.34
2023-05-15T20:17:43.672Z,97384.22
2023-05-15T20:20:12.289Z,97387.22
2023-05-15T20:22:42.487Z,97381.00
2023-05-15T20:25:11.017Z,97384.06
2023-05-15T20:27:38.737Z,97379.47
2023-05-15T20:30:07.794Z,97374.88
2023-05-15T20:32:36.424Z,97382.38
2023-05-15T20:35:04.658Z,97385.69
2023-05-15T20:37:32.119Z,97388.41
2023-05-15T20:40:00.390Z,97390.22
2023-05-15T20:42:28.964Z,97395.38
2023-05-15T20:44:56.646Z,97402.94
2023-05-15T20:47:24.225Z,97405.50
2023-05-15T20:49:52.020Z,97397.34
2023-05-15T20:52:20.949Z,97394.63
2023-05-15T20:54:48.964Z,97398.41
2023-05-15T20:57:16.442Z,97391.97
2023-05-15T20:59:44.278Z,97400.03
2023-05-15T21:02:11.695Z,97389.47
2023-05-15T21:04:39.885Z,97397.69
2023-05-15T21:07:07.247Z,97398.19
2023-05-15T21:09:35.884Z,97410.47
2023-05-15T21:12:04.018Z,97407.44
2023-05-15T21:14:32.021Z,97420.94
2023-05-15T21:16:59.384Z,97417.56
2023-05-15T21:19:27.345Z,97411.00
2023-05-15T21:21:54.961Z,97420.22
2023-05-15T21:24:23.099Z,97419.53
2023-05-15T21:26:50.657Z,97417.78
2023-05-15T21:29:18.327Z,97429.16
2023-05-15T21:31:45.777Z,97417.41
2023-05-15T21:34:13.594Z,97431.38
2023-05-15T21:36:41.186Z,97432.44
2023-05-15T21:39:09.583Z,97432.63
2023-05-15T21:41:37.022Z,97425.97
2023-05-15T21:44:04.751Z,97429.59
2023-05-15T21:46:32.083Z,97429.44
2023-05-15T21:49:01.875Z,97433.19
2023-05-15T21:51:29.344Z,97433.88
2023-05-15T21:53:57.229Z,97433.63
2023-05-15T21:56:24.584Z,97436.28
2023-05-15T21:58:53.678Z,97436.91
2023-05-15T22:01:21.108Z,97426.34
2023-05-15T22:03:49.164Z,97435.72
2023-05-15T22:06:16.749Z,97437.78
2023-05-15T22:08:44.952Z,97436.00
2023-05-15T22:11:12.551Z,97430.88
2023-05-15T22:13:40.157Z,97432.56
2023-05-15T22:16:07.717Z,97433.09
2023-05-15T22:18:35.792Z,97437.66
2023-05-15T22:21:03.244Z,97438.03
2023-05-15T22:23:31.603Z,97438.31
2023-05-15T22:26:00.034Z,97443.44
2023-05-15T22:28:27.896Z,97446.75
2023-05-15T22:30:55.549Z,97445.53
2023-05-15T22:33:24.584Z,97452.00
2023-05-15T22:35:52.909Z,97453.09
2023-05-15T22:38:21.353Z,97460.22
2023-05-15T22:40:52.837Z,97466.56
2023-05-15T22:43:22.140Z,97464.66
2023-05-15T22:45:49.646Z,97461.63
2023-05-15T22:48:17.670Z,97456.97
2023-05-15T22:50:45.189Z,97456.16
2023-05-15T22:53:12.844Z,97461.25
2023-05-15T22:55:40.409Z,97449.78
2023-05-15T22:58:08.109Z,97459.72
2023-05-15T23:00:35.668Z,97460.00
2023-05-15T23:03:03.562Z,97462.41
2023-05-15T23:05:31.358Z,97451.59
2023-05-15T23:07:59.022Z,97453.03
2023-05-15T23:10:26.890Z,97453.91
2023-05-15T23:12:55.054Z,97455.19
2023-05-15T23:15:22.382Z,97449.19
2023-05-15T23:17:50.319Z,97459.72
2023-05-15T23:20:18.212Z,97458.19
2023-05-15T23:22:45.950Z,97463.56
2023-05-15T23:25:13.382Z,97455.53
2023-05-15T23:27:41.248Z,97463.72
2023-05-15T23:30:09.967Z,97451.09
2023-05-15T23:32:37.935Z,97457.84
2023-05-15T23:35:05.921Z,97456.63
2023-05-15T23:37:33.563Z,97451.25
2023-05-15T23:40:00.973Z,97467.91
2023-05-15T23:42:30.137Z,97465.63
2023-05-15T23:44:57.505Z,97472.34
2023-05-15T23:47:25.250Z,97466.00
2023-05-15T23:49:52.661Z,97467.31
2023-05-15T23:52:20.338Z,97470.53
2023-05-15T23:54:47.645Z,97483.50
2023-05-15T23:57:15.663Z,97476.00
2023-05-15T23:59:43.000Z,97471.56
